Time;durP1;ratioP1;P1;durP2;ratioP2;P2;SDS_P1;SDS_P2;PMS_P1;PMS_P2;Temp;Humidity;BMP_temperature;BMP_pressure;BME280_temperature;BME280_humidity;BME280_pressure;Samples;Min_cycle;Max_cycle;Signal;HPM_P1;HPM_P2
2023/04/13 00:00:13;;;;;;;0.10;0.10;;;;;;;;;;6263350;22;20090;-74
2023/04/13 00:02:39;;;;;;;0.10;0.10;;;;;;;;;;6264649;22;20530;-74
2023/04/13 00:05:09;;;;;;;0.10;0.10;;;;;;;;;;6238317;22;20375;-74
2023/04/13 00:07:39;;;;;;;0.10;0.10;;;;;;;;;;6264434;22;20021;-73
2023/04/13 00:10:09;;;;;;;0.10;0.10;;;;;;;;;;6263847;22;20086;-74
2023/04/13 00:12:47;;;;;;;0.43;0.35;;;;;;;;;;6264336;22;20488;-73
2023/04/13 00:15:21;;;;;;;0.10;0.10;;;;;;;;;;6292473;22;20019;-74
2023/04/13 00:17:47;;;;;;;0.10;0.10;;;;;;;;;;6265832;22;20081;-74
2023/04/13 00:20:13;;;;;;;0.57;0.57;;;;;;;;;;6293719;22;20469;-74
2023/04/13 00:22:43;;;;;;;0.10;0.10;;;;;;;;;;6265825;22;20244;-73
2023/04/13 00:25:10;;;;;;;0.10;0.10;;;;;;;;;;6267205;22;20121;-73
2023/04/13 00:27:38;;;;;;;0.10;0.10;;;;;;;;;;6266677;22;20037;-73
2023/04/13 00:30:08;;;;;;;0.00;0.00;;;;;;;;;;6292953;22;20015;-73
2023/04/13 00:32:35;;;;;;;0.10;0.10;;;;;;;;;;6265852;22;20022;-73
2023/04/13 00:35:01;;;;;;;0.10;0.10;;;;;;;;;;6265429;22;20100;-73
2023/04/13 00:37:31;;;;;;;0.10;0.10;;;;;;;;;;6266615;22;20019;-73
2023/04/13 00:39:58;;;;;;;0.10;0.10;;;;;;;;;;6265606;22;20015;-74
2023/04/13 00:42:24;;;;;;;0.10;0.10;;;;;;;;;;6265378;22;20073;-73
2023/04/13 00:44:50;;;;;;;0.10;0.10;;;;;;;;;;6265420;22;20369;-72
2023/04/13 00:47:21;;;;;;;0.10;0.10;;;;;;;;;;6293391;22;20016;-73
2023/04/13 00:49:47;;;;;;;0.10;0.10;;;;;;;;;;6292977;22;20719;-72
2023/04/13 00:52:14;;;;;;;0.10;0.10;;;;;;;;;;6265197;22;20026;-73
2023/04/13 00:54:41;;;;;;;0.57;0.57;;;;;;;;;;6266158;22;20023;-72
2023/04/13 00:57:07;;;;;;;0.10;0.10;;;;;;;;;;6293363;22;20069;-72
2023/04/13 00:59:33;;;;;;;0.10;0.10;;;;;;;;;;6239614;22;20015;-78
2023/04/13 01:02:03;;;;;;;0.10;0.10;;;;;;;;;;6265239;22;20019;-78
2023/04/13 01:04:31;;;;;;;0.10;0.10;;;;;;;;;;6266020;22;20133;-77
2023/04/13 01:07:02;;;;;;;0.10;0.10;;;;;;;;;;6292954;22;20015;-77
2023/04/13 01:09:31;;;;;;;0.10;0.10;;;;;;;;;;6265102;22;20097;-77
2023/04/13 01:12:16;;;;;;;0.10;0.10;;;;;;;;;;6265338;22;20019;-77
2023/04/13 01:14:54;;;;;;;0.10;0.10;;;;;;;;;;6265382;22;20023;-77
2023/04/13 01:17:23;;;;;;;0.10;0.10;;;;;;;;;;6265837;22;20045;-77
2023/04/13 01:19:55;;;;;;;0.10;0.10;;;;;;;;;;6292948;22;20011;-79
2023/04/13 01:22:23;;;;;;;0.10;0.10;;;;;;;;;;6292370;22;20023;-78
2023/04/13 01:24:54;;;;;;;0.10;0.10;;;;;;;;;;6265459;22;20049;-78
2023/04/13 01:27:41;;;;;;;0.10;0.10;;;;;;;;;;6265235;22;20015;-78
2023/04/13 01:30:09;;;;;;;0.10;0.10;;;;;;;;;;6292236;22;20070;-77
2023/04/13 01:32:40;;;;;;;0.10;0.10;;;;;;;;;;6265040;22;20517;-78
2023/04/13 01:35:09;;;;;;;0.10;0.10;;;;;;;;;;6265896;22;20023;-78
2023/04/13 01:37:39;;;;;;;0.10;0.10;;;;;;;;;;6264712;22;20357;-82
2023/04/13 01:40:09;;;;;;;0.10;0.10;;;;;;;;;;6265226;22;20023;-83
2023/04/13 01:42:35;;;;;;;0.10;0.10;;;;;;;;;;6291323;22;20095;-83
2023/04/13 01:45:02;;;;;;;0.40;0.40;;;;;;;;;;6265042;22;20027;-83
2023/04/13 01:47:28;;;;;;;0.10;0.10;;;;;;;;;;6265842;22;20030;-83
2023/04/13 01:49:59;;;;;;;0.10;0.10;;;;;;;;;;6292158;22;20046;-82
2023/04/13 01:52:26;;;;;;;0.10;0.10;;;;;;;;;;6265694;22;20117;-82
2023/04/13 01:54:55;;;;;;;0.10;0.10;;;;;;;;;;6293215;22;20405;-83
2023/04/13 01:57:22;;;;;;;0.10;0.10;;;;;;;;;;6292117;22;20023;-83
2023/04/13 01:59:48;;;;;;;0.20;0.20;;;;;;;;;;6265736;22;20038;-84
2023/04/13 02:02:16;;;;;;;0.13;0.13;;;;;;;;;;6265322;22;20077;-83
2023/04/13 02:04:42;;;;;;;0.10;0.10;;;;;;;;;;6265622;22;20028;-83
2023/04/13 02:07:11;;;;;;;0.10;0.10;;;;;;;;;;6265731;22;20022;-83
2023/04/13 02:09:37;;;;;;;0.20;0.20;;;;;;;;;;6265061;22;20025;-83
2023/04/13 02:12:03;;;;;;;0.10;0.10;;;;;;;;;;6264798;22;20023;-83
2023/04/13 02:14:29;;;;;;;0.10;0.10;;;;;;;;;;6293412;22;20022;-83
2023/04/13 02:16:56;;;;;;;0.10;0.10;;;;;;;;;;6294075;22;20019;-82
2023/04/13 02:19:23;;;;;;;1.10;0.57;;;;;;;;;;6265001;22;20023;-83
2023/04/13 02:21:49;;;;;;;0.10;0.10;;;;;;;;;;6264967;22;20090;-84
2023/04/13 02:24:15;;;;;;;0.10;0.10;;;;;;;;;;6293078;22;20019;-84
2023/04/13 02:26:42;;;;;;;0.10;0.10;;;;;;;;;;6292485;22;20058;-83
2023/04/13 02:29:08;;;;;;;0.10;0.10;;;;;;;;;;6265147;22;20019;-84
2023/04/13 02:31:35;;;;;;;0.43;0.43;;;;;;;;;;6264338;22;20029;-82
2023/04/13 02:34:01;;;;;;;0.20;0.20;;;;;;;;;;6239520;22;20030;-82
2023/04/13 02:36:27;;;;;;;0.10;0.10;;;;;;;;;;6292324;22;20019;-78
2023/04/13 02:38:53;;;;;;;0.10;0.10;;;;;;;;;;6291578;22;20015;-72
2023/04/13 02:41:21;;;;;;;0.10;0.10;;;;;;;;;;6264917;22;20030;-72
2023/04/13 02:43:49;;;;;;;0.10;0.10;;;;;;;;;;6264686;22;20092;-71
2023/04/13 02:46:15;;;;;;;0.10;0.10;;;;;;;;;;6263753;22;20030;-72
2023/04/13 02:48:41;;;;;;;0.10;0.10;;;;;;;;;;6291650;22;20019;-72
2023/04/13 02:51:08;;;;;;;0.10;0.10;;;;;;;;;;6264412;22;20024;-72
2023/04/13 02:53:35;;;;;;;0.10;0.10;;;;;;;;;;6291734;22;20045;-72
2023/04/13 02:56:01;;;;;;;0.10;0.10;;;;;;;;;;6264616;22;20419;-72
2023/04/13 02:58:30;;;;;;;0.10;0.10;;;;;;;;;;6264854;22;20093;-72
2023/04/13 03:00:56;;;;;;;0.10;0.10;;;;;;;;;;6291412;22;20019;-72
2023/04/13 03:03:22;;;;;;;0.10;0.10;;;;;;;;;;6264032;22;20077;-72
2023/04/13 03:05:51;;;;;;;0.10;0.10;;;;;;;;;;6264740;22;20504;-72
2023/04/13 03:08:18;;;;;;;0.10;0.10;;;;;;;;;;6264163;22;20026;-72
2023/04/13 03:10:44;;;;;;;0.10;0.10;;;;;;;;;;6264290;22;20022;-72
2023/04/13 03:13:10;;;;;;;0.10;0.10;;;;;;;;;;6264379;22;20023;-71
2023/04/13 03:15:36;;;;;;;0.10;0.10;;;;;;;;;;6264212;22;20059;-72
2023/04/13 03:18:03;;;;;;;0.10;0.10;;;;;;;;;;6264744;22;20019;-72
2023/04/13 03:20:29;;;;;;;0.20;0.20;;;;;;;;;;6264225;22;20456;-72
2023/04/13 03:22:57;;;;;;;0.10;0.10;;;;;;;;;;6264923;22;20193;-72
2023/04/13 03:25:23;;;;;;;0.10;0.10;;;;;;;;;;6264834;22;20489;-72
2023/04/13 03:27:50;;;;;;;0.10;0.10;;;;;;;;;;6264813;22;20460;-72
2023/04/13 03:32:52;;;;;;;0.38;0.38;;;;;;;;;;6241751;22;20015;-71
2023/04/13 03:35:18;;;;;;;0.10;0.10;;;;;;;;;;6243428;22;20147;-71
2023/04/13 03:37:44;;;;;;;0.10;0.10;;;;;;;;;;6253564;22;20847;-71
2023/04/13 03:40:11;;;;;;;0.10;0.10;;;;;;;;;;6260093;22;20028;-71
2023/04/13 03:42:37;;;;;;;0.10;0.10;;;;;;;;;;6259588;22;20401;-71
2023/04/13 03:45:04;;;;;;;0.10;0.10;;;;;;;;;;6259530;22;20020;-72
2023/04/13 03:47:30;;;;;;;0.10;0.10;;;;;;;;;;6233606;22;20458;-72
2023/04/13 03:49:56;;;;;;;0.10;0.10;;;;;;;;;;6261702;22;20030;-72
2023/04/13 03:52:22;;;;;;;0.30;0.30;;;;;;;;;;6263219;22;20034;-72
2023/04/13 03:54:48;;;;;;;0.10;0.10;;;;;;;;;;6261257;22;20178;-72
2023/04/13 03:57:14;;;;;;;0.10;0.10;;;;;;;;;;6262735;22;20035;-72
2023/04/13 03:59:40;;;;;;;0.10;0.10;;;;;;;;;;6260833;22;20020;-71
2023/04/13 04:02:06;;;;;;;0.10;0.10;;;;;;;;;;6259451;22;20149;-76
2023/04/13 04:04:32;;;;;;;0.10;0.10;;;;;;;;;;6260790;22;20099;-75
2023/04/13 04:06:59;;;;;;;0.10;0.10;;;;;;;;;;6261750;22;20118;-76
2023/04/13 04:09:26;;;;;;;0.10;0.10;;;;;;;;;;6261458;22;20023;-80
2023/04/13 04:11:52;;;;;;;0.10;0.10;;;;;;;;;;6262810;22;20020;-79
2023/04/13 04:14:19;;;;;;;0.10;0.10;;;;;;;;;;6261773;22;20099;-79
2023/04/13 04:16:45;;;;;;;0.20;0.20;;;;;;;;;;6262093;22;20026;-80
2023/04/13 04:19:11;;;;;;;0.10;0.10;;;;;;;;;;6260939;22;20090;-79
2023/04/13 04:21:37;;;;;;;0.10;0.10;;;;;;;;;;6260225;22;20020;-79
2023/04/13 04:24:05;;;;;;;0.08;0.08;;;;;;;;;;6261343;22;20031;-82
2023/04/13 04:26:31;;;;;;;0.52;0.52;;;;;;;;;;6263526;22;20011;-79
2023/04/13 04:29:05;;;;;;;0.10;0.10;;;;;;;;;;6262460;22;20030;-83
2023/04/13 04:31:33;;;;;;;0.10;0.10;;;;;;;;;;6262423;22;20024;-82
2023/04/13 04:33:59;;;;;;;0.10;0.10;;;;;;;;;;6262149;22;20068;-81
2023/04/13 04:36:25;;;;;;;0.10;0.10;;;;;;;;;;6260390;22;20035;-82
2023/04/13 04:38:56;;;;;;;0.10;0.10;;;;;;;;;;6263214;22;20059;-83
2023/04/13 04:41:23;;;;;;;0.10;0.10;;;;;;;;;;6263388;22;20022;-84
2023/04/13 04:43:49;;;;;;;0.10;0.10;;;;;;;;;;6261934;22;20051;-81
2023/04/13 04:46:15;;;;;;;0.10;0.10;;;;;;;;;;6260789;22;20022;-84
2023/04/13 04:48:46;;;;;;;0.10;0.10;;;;;;;;;;6263079;22;20112;-83
2023/04/13 04:51:12;;;;;;;0.10;0.10;;;;;;;;;;6262777;22;20153;-83
2023/04/13 04:53:38;;;;;;;0.10;0.10;;;;;;;;;;6262667;22;20100;-83
2023/04/13 04:56:05;;;;;;;0.10;0.10;;;;;;;;;;6261398;22;20024;-83
2023/04/13 04:58:31;;;;;;;0.75;0.68;;;;;;;;;;6260898;22;20439;-81
2023/04/13 05:00:57;;;;;;;0.10;0.10;;;;;;;;;;6262150;22;20020;-80
2023/04/13 05:03:23;;;;;;;0.10;0.10;;;;;;;;;;6260820;22;20020;-80
2023/04/13 05:05:50;;;;;;;0.10;0.10;;;;;;;;;;6262020;22;20379;-76
2023/04/13 05:08:16;;;;;;;0.10;0.10;;;;;;;;;;6262529;22;20022;-74
2023/04/13 05:10:45;;;;;;;0.10;0.10;;;;;;;;;;6262787;22;20450;-75
2023/04/13 05:13:11;;;;;;;0.10;0.10;;;;;;;;;;6261381;22;20120;-75
2023/04/13 05:15:38;;;;;;;0.10;0.10;;;;;;;;;;6260539;22;20020;-75
2023/04/13 05:18:05;;;;;;;0.10;0.10;;;;;;;;;;6236151;22;20088;-75
2023/04/13 05:20:33;;;;;;;0.10;0.10;;;;;;;;;;6260929;22;20114;-75
2023/04/13 05:22:59;;;;;;;0.10;0.10;;;;;;;;;;6262830;22;20058;-75
2023/04/13 05:25:25;;;;;;;0.10;0.10;;;;;;;;;;6263188;22;20469;-75
2023/04/13 05:27:52;;;;;;;0.10;0.10;;;;;;;;;;6260963;22;20016;-74
2023/04/13 05:30:18;;;;;;;0.57;0.57;;;;;;;;;;6260647;22;20438;-75
2023/04/13 05:32:44;;;;;;;0.15;0.15;;;;;;;;;;6261227;22;20612;-75
2023/04/13 05:35:10;;;;;;;0.10;0.10;;;;;;;;;;6264691;22;20020;-75
2023/04/13 05:37:38;;;;;;;0.10;0.10;;;;;;;;;;6265834;22;20110;-75
2023/04/13 05:40:07;;;;;;;0.10;0.10;;;;;;;;;;6266295;22;20472;-74
2023/04/13 05:42:33;;;;;;;0.10;0.10;;;;;;;;;;6266196;22;20064;-75
2023/04/13 05:44:59;;;;;;;0.10;0.10;;;;;;;;;;6266092;22;20019;-75
2023/04/13 05:47:26;;;;;;;0.10;0.10;;;;;;;;;;6265906;22;20511;-74
2023/04/13 05:49:52;;;;;;;0.10;0.10;;;;;;;;;;6265796;22;20369;-75
2023/04/13 05:52:18;;;;;;;0.10;0.10;;;;;;;;;;6265754;22;20084;-75
2023/04/13 05:54:44;;;;;;;0.10;0.10;;;;;;;;;;6240507;22;20015;-75
2023/04/13 05:57:10;;;;;;;0.10;0.10;;;;;;;;;;6266530;22;20090;-75
2023/04/13 05:59:37;;;;;;;0.20;0.20;;;;;;;;;;6239396;22;20023;-75
2023/04/13 06:02:03;;;;;;;0.10;0.10;;;;;;;;;;6265875;22;20092;-75
2023/04/13 06:04:30;;;;;;;0.47;0.47;;;;;;;;;;6240723;22;20015;-83
2023/04/13 06:06:56;;;;;;;0.10;0.10;;;;;;;;;;6266638;22;20023;-82
2023/04/13 06:09:22;;;;;;;0.10;0.10;;;;;;;;;;6293795;22;20015;-82
2023/04/13 06:11:49;;;;;;;0.10;0.10;;;;;;;;;;6292375;22;20072;-82
2023/04/13 06:14:16;;;;;;;0.10;0.10;;;;;;;;;;6265924;22;20496;-83
2023/04/13 06:16:43;;;;;;;0.10;0.10;;;;;;;;;;6266664;22;20023;-83
2023/04/13 06:19:11;;;;;;;0.10;0.10;;;;;;;;;;6293825;22;20718;-81
2023/04/13 06:21:37;;;;;;;0.10;0.10;;;;;;;;;;6265857;22;20015;-82
2023/04/13 06:24:03;;;;;;;0.10;0.10;;;;;;;;;;6293851;22;20011;-82
2023/04/13 06:26:29;;;;;;;0.10;0.10;;;;;;;;;;6266050;22;20481;-81
2023/04/13 06:28:55;;;;;;;0.10;0.10;;;;;;;;;;6265442;22;20382;-83
2023/04/13 06:31:22;;;;;;;0.10;0.10;;;;;;;;;;6266166;22;20019;-84
2023/04/13 06:33:49;;;;;;;0.20;0.20;;;;;;;;;;6265571;22;20019;-82
2023/04/13 06:36:15;;;;;;;0.10;0.10;;;;;;;;;;6260785;22;20441;-85
2023/04/13 06:38:41;;;;;;;0.10;0.10;;;;;;;;;;6260252;22;20015;-83
2023/04/13 06:41:07;;;;;;;0.10;0.10;;;;;;;;;;6260751;22;20020;-75
2023/04/13 06:43:33;;;;;;;0.50;0.50;;;;;;;;;;6259935;22;20045;-74
2023/04/13 06:46:01;;;;;;;0.10;0.10;;;;;;;;;;6261144;22;20019;-75
2023/04/13 06:48:27;;;;;;;0.10;0.10;;;;;;;;;;6260337;22;20027;-75
2023/04/13 06:50:58;;;;;;;0.10;0.10;;;;;;;;;;6260347;22;20042;-75
2023/04/13 06:53:24;;;;;;;0.10;0.10;;;;;;;;;;6262307;22;20016;-75
2023/04/13 06:55:50;;;;;;;0.10;0.10;;;;;;;;;;6260992;22;20022;-75
2023/04/13 06:58:16;;;;;;;1.27;0.70;;;;;;;;;;6259021;22;20026;-80
2023/04/13 07:00:42;;;;;;;0.10;0.10;;;;;;;;;;6260370;22;20023;-79
2023/04/13 07:03:08;;;;;;;0.10;0.10;;;;;;;;;;6260393;22;20458;-83
2023/04/13 07:05:35;;;;;;;0.10;0.10;;;;;;;;;;6260837;22;20414;-84
2023/04/13 07:08:01;;;;;;;0.10;0.10;;;;;;;;;;6262660;22;20343;-76
2023/04/13 07:10:27;;;;;;;;;;;;;;;;;;6260094;22;20085;-84
2023/04/13 07:12:52;;;;;;;;;;;;;;;;;;6260287;22;19915;-78
2023/04/13 07:15:19;;;;;;;0.10;0.10;;;;;;;;;;6234465;22;19992;-78
2023/04/13 07:17:45;;;;;;;0.10;0.10;;;;;;;;;;6261536;22;20019;-78
2023/04/13 07:20:11;;;;;;;0.10;0.10;;;;;;;;;;6259596;22;20019;-80
2023/04/13 07:22:37;;;;;;;0.68;0.68;;;;;;;;;;6261028;22;20073;-78
2023/04/13 07:25:04;;;;;;;0.47;0.47;;;;;;;;;;6259983;22;20016;-79
2023/04/13 07:27:31;;;;;;;0.10;0.10;;;;;;;;;;6260834;22;20054;-78
2023/04/13 07:29:58;;;;;;;0.10;0.10;;;;;;;;;;6260435;22;20340;-80
2023/04/13 07:32:26;;;;;;;0.10;0.10;;;;;;;;;;6260607;22;20046;-79
2023/04/13 07:34:52;;;;;;;;;;;;;;;;;;6260932;22;20051;-78
2023/04/13 07:37:18;;;;;;;;;;;;;;;;;;6260419;22;20142;-75
2023/04/13 07:39:44;;;;;;;;;;;;;;;;;;6260877;22;19941;-79
2023/04/13 07:42:10;;;;;;;;;;;;;;;;;;6258463;22;19954;-81
2023/04/13 07:44:36;;;;;;;;;;;;;;;;;;6262727;22;20696;-80
2023/04/13 07:47:02;;;;;;;;;;;;;;;;;;6260792;22;20318;-82
2023/04/13 07:49:28;;;;;;;;;;;;;;;;;;6260814;22;19942;-80
2023/04/13 07:51:54;;;;;;;;;;;;;;;;;;6261069;22;19934;-78
2023/04/13 07:54:21;;;;;;;;;;;;;;;;;;6260525;22;19911;-82
2023/04/13 07:56:46;;;;;;;;;;;;;;;;;;6261093;22;19915;-73
2023/04/13 07:59:13;;;;;;;;;;;;;;;;;;6260876;22;19953;-72
2023/04/13 08:01:39;;;;;;;;;;;;;;;;;;6260733;22;20449;-73
2023/04/13 08:04:05;;;;;;;;;;;;;;;;;;6260669;22;19919;-74
2023/04/13 08:06:31;;;;;;;;;;;;;;;;;;6234936;22;19934;-74
2023/04/13 08:08:57;;;;;;;;;;;;;;;;;;6234197;22;19915;-75
2023/04/13 08:11:22;;;;;;;;;;;;;;;;;;6261187;22;19915;-73
2023/04/13 08:13:48;;;;;;;;;;;;;;;;;;6234060;22;19919;-75
2023/04/13 08:16:15;;;;;;;;;;;;;;;;;;6259804;22;19915;-74
2023/04/13 08:18:41;;;;;;;;;;;;;;;;;;6260451;22;19919;-74
2023/04/13 08:21:09;;;;;;;;;;;;;;;;;;6261546;22;19953;-74
2023/04/13 08:23:36;;;;;;;;;;;;;;;;;;6259683;22;19914;-74
2023/04/13 08:26:02;;;;;;;;;;;;;;;;;;6259919;22;20225;-74
2023/04/13 08:28:28;;;;;;;;;;;;;;;;;;6261673;22;19925;-74
2023/04/13 08:30:54;;;;;;;;;;;;;;;;;;6260021;22;19919;-73
2023/04/13 08:33:20;;;;;;;;;;;;;;;;;;6259376;22;19994;-73
2023/04/13 08:35:46;;;;;;;;;;;;;;;;;;6261154;22;19989;-73
2023/04/13 08:38:12;;;;;;;;;;;;;;;;;;6261575;22;20246;-73
2023/04/13 08:40:38;;;;;;;;;;;;;;;;;;6262318;22;19919;-73
2023/04/13 08:43:04;;;;;;;;;;;;;;;;;;6261561;22;19911;-73
2023/04/13 08:45:31;;;;;;;;;;;;;;;;;;6261754;22;19919;-73
2023/04/13 08:47:57;;;;;;;;;;;;;;;;;;6264273;22;19980;-72
2023/04/13 08:50:23;;;;;;;;;;;;;;;;;;6262222;22;19972;-72
2023/04/13 08:52:49;;;;;;;;;;;;;;;;;;6262024;22;20329;-73
2023/04/13 08:55:15;;;;;;;;;;;;;;;;;;6261122;22;20038;-73
2023/04/13 08:57:41;;;;;;;;;;;;;;;;;;6262215;22;19942;-73
2023/04/13 09:00:14;;;;;;;;;;;;;;;;;;6262030;22;19919;-73
2023/04/13 09:02:41;;;;;;;;;;;;;;;;;;6261014;22;19957;-72
2023/04/13 09:05:14;;;;;;;;;;;;;;;;;;6262801;22;20307;-73
2023/04/13 09:07:40;;;;;;;;;;;;;;;;;;6263744;22;20289;-73
2023/04/13 09:10:08;;;;;;;;;;;;;;;;;;6261953;22;20405;-73
2023/04/13 09:12:34;;;;;;;;;;;;;;;;;;6261818;22;19990;-73
2023/04/13 09:15:02;;;;;;;;;;;;;;;;;;6261496;22;19999;-78
2023/04/13 09:17:27;;;;;;;;;;;;;;;;;;6261958;22;20624;-79
2023/04/13 09:19:53;;;;;;;;;;;;;;;;;;6262225;22;19915;-79
2023/04/13 09:22:20;;;;;;;;;;;;;;;;;;6261426;22;20030;-79
2023/04/13 09:24:47;;;;;;;;;;;;;;;;;;6261070;22;20031;-78
2023/04/13 09:27:13;;;;;;;;;;;;;;;;;;6261200;22;19922;-76
2023/04/13 09:29:39;;;;;;;;;;;;;;;;;;6260583;22;19919;-77
2023/04/13 09:32:05;;;;;;;;;;;;;;;;;;6261799;22;20325;-79
2023/04/13 09:34:31;;;;;;;;;;;;;;;;;;6260791;22;20382;-83
2023/04/13 09:36:56;;;;;;;;;;;;;;;;;;6262058;22;20575;-80
2023/04/13 09:39:22;;;;;;;;;;;;;;;;;;6262393;22;19961;-81
2023/04/13 09:41:50;;;;;;;;;;;;;;;;;;6262072;22;19951;-79
2023/04/13 09:44:19;;;;;;;;;;;;;;;;;;6262051;22;19959;-80
2023/04/13 09:46:45;;;;;;;;;;;;;;;;;;6261906;22;19926;-83
2023/04/13 09:49:11;;;;;;;;;;;;;;;;;;6262478;22;19915;-84
2023/04/13 09:51:37;;;;;;;;;;;;;;;;;;6261400;22;20754;-87
2023/04/13 09:54:04;;;;;;;;;;;;;;;;;;6263576;22;20304;-86
2023/04/13 09:56:31;;;;;;;;;;;;;;;;;;6263426;22;20429;-85
2023/04/13 09:58:57;;;;;;;;;;;;;;;;;;6261392;22;20000;-83
2023/04/13 10:01:23;;;;;;;;;;;;;;;;;;6236655;22;20381;-86
2023/04/13 10:03:49;;;;;;;;;;;;;;;;;;6261957;22;19923;-86
2023/04/13 10:06:15;;;;;;;;;;;;;;;;;;6261530;22;19915;-82
2023/04/13 10:08:41;;;;;;;;;;;;;;;;;;6262048;22;19923;-86
2023/04/13 10:11:07;;;;;;;;;;;;;;;;;;6260913;22;20411;-75
2023/04/13 10:13:33;;;;;;;;;;;;;;;;;;6260527;22;20823;-75
2023/04/13 10:15:59;;;;;;;;;;;;;;;;;;6260621;22;19915;-75
2023/04/13 10:18:25;;;;;;;;;;;;;;;;;;6259373;22;19962;-75
2023/04/13 10:20:51;;;;;;;;;;;;;;;;;;6259614;22;19915;-75
2023/04/13 10:23:17;;;;;;;;;;;;;;;;;;6259673;22;19926;-75
2023/04/13 10:25:44;;;;;;;;;;;;;;;;;;6259183;22;19915;-76
2023/04/13 10:28:11;;;;;;;;;;;;;;;;;;6258911;22;19915;-75
2023/04/13 10:30:37;;;;;;;;;;;;;;;;;;6260690;22;19947;-81
2023/04/13 10:33:04;;;;;;;;;;;;;;;;;;6235478;22;19927;-92
2023/04/13 10:35:30;;;;;;;;;;;;;;;;;;6261873;22;20277;-92
2023/04/13 10:37:56;;;;;;;;;;;;;;;;;;6267134;22;19946;-90
2023/04/13 10:40:22;;;;;;;;;;;;;;;;;;6295849;22;20392;-91
2023/04/13 10:42:49;;;;;;;;;;;;;;;;;;6295155;22;19996;-91
2023/04/13 10:45:15;;;;;;;;;;;;;;;;;;6295591;22;19920;-86
2023/04/13 10:47:41;;;;;;;;;;;;;;;;;;6295122;22;19918;-91
2023/04/13 10:50:15;;;;;;;0.10;0.10;;;;;;;;;;6294818;22;20341;-93
2023/04/13 10:52:41;;;;;;;0.10;0.10;;;;;;;;;;6293507;22;20086;-91
2023/04/13 10:55:08;;;;;;;0.10;0.10;;;;;;;;;;6293276;22;20525;-89
2023/04/13 10:57:35;;;;;;;0.10;0.10;;;;;;;;;;6265021;22;20015;-90
2023/04/13 11:00:02;;;;;;;0.10;0.10;;;;;;;;;;6266609;22;20015;-91
2023/04/13 11:02:31;;;;;;;0.00;0.00;;;;;;;;;;6265906;22;20019;-92
2023/04/13 11:04:58;;;;;;;0.00;0.00;;;;;;;;;;6294364;22;20015;-91
2023/04/13 11:07:25;;;;;;;0.10;0.10;;;;;;;;;;6297402;22;20011;-95
2023/04/13 11:09:56;;;;;;;0.10;0.10;;;;;;;;;;6294954;22;20090;-96
2023/04/13 11:12:22;;;;;;;0.15;0.15;;;;;;;;;;6302450;22;20021;-91
2023/04/13 11:14:49;;;;;;;0.10;0.10;;;;;;;;;;6300079;22;20073;-91
2023/04/13 11:17:17;;;;;;;0.10;0.10;;;;;;;;;;6302500;22;20019;-94
2023/04/13 11:19:50;;;;;;;0.10;0.10;;;;;;;;;;6303946;22;20019;-94
2023/04/13 11:22:21;;;;;;;0.10;0.10;;;;;;;;;;6305732;22;20019;-94
2023/04/13 11:24:47;;;;;;;0.10;0.10;;;;;;;;;;6305662;22;20015;-93
2023/04/13 11:27:21;;;;;;;0.10;0.10;;;;;;;;;;6268110;22;20068;-91
2023/04/13 11:30:05;;;;;;;0.10;0.10;;;;;;;;;;6296084;22;20854;-89
2023/04/13 11:32:32;;;;;;;0.00;0.00;;;;;;;;;;6264775;22;20023;-89
2023/04/13 11:35:09;;;;;;;0.47;0.47;;;;;;;;;;6291854;22;20404;-90
2023/04/13 11:37:38;;;;;;;2.70;2.50;;;;;;;;;;6260155;22;20054;-89
2023/04/13 11:40:24;;;;;;;0.10;0.10;;;;;;;;;;6258984;22;20034;-90
2023/04/13 11:42:55;;;;;;;0.10;0.10;;;;;;;;;;6260324;22;20020;-82
2023/04/13 11:45:22;;;;;;;0.10;0.10;;;;;;;;;;6257080;22;20118;-83
2023/04/13 11:47:51;;;;;;;0.10;0.10;;;;;;;;;;6259250;22;20114;-77
2023/04/13 11:50:18;;;;;;;0.47;0.35;;;;;;;;;;6259240;22;20450;-77
2023/04/13 11:52:45;;;;;;;0.10;0.10;;;;;;;;;;6261528;22;20323;-76
2023/04/13 11:55:12;;;;;;;0.10;0.10;;;;;;;;;;6261441;22;20015;-76
2023/04/13 11:57:43;;;;;;;0.63;0.63;;;;;;;;;;6259542;22;20069;-76
2023/04/13 12:00:17;;;;;;;0.10;0.10;;;;;;;;;;6260194;22;20110;-78
2023/04/13 12:02:43;;;;;;;0.10;0.10;;;;;;;;;;6261358;22;20063;-77
2023/04/13 12:05:21;;;;;;;0.10;0.10;;;;;;;;;;6260711;22;20023;-76
2023/04/13 12:07:47;;;;;;;0.10;0.10;;;;;;;;;;6260264;22;20023;-77
2023/04/13 12:10:19;;;;;;;0.15;0.15;;;;;;;;;;6261029;22;20070;-76
2023/04/13 12:12:45;;;;;;;0.10;0.10;;;;;;;;;;6263856;22;20019;-76
2023/04/13 12:15:11;;;;;;;0.10;0.10;;;;;;;;;;6262305;22;20020;-77
2023/04/13 12:17:37;;;;;;;0.10;0.10;;;;;;;;;;6261857;22;20166;-77
2023/04/13 12:20:03;;;;;;;0.10;0.10;;;;;;;;;;6263601;22;20020;-77
2023/04/13 12:22:40;;;;;;;0.10;0.10;;;;;;;;;;6261969;22;20023;-77
2023/04/13 12:25:16;;;;;;;0.10;0.10;;;;;;;;;;6262488;22;20030;-76
2023/04/13 12:27:42;;;;;;;0.10;0.10;;;;;;;;;;6261307;22;20028;-82
2023/04/13 12:30:12;;;;;;;0.15;0.15;;;;;;;;;;6260905;22;20536;-81
2023/04/13 12:32:40;;;;;;;0.10;0.10;;;;;;;;;;6260517;22;20023;-82
2023/04/13 12:35:06;;;;;;;0.10;0.10;;;;;;;;;;6258042;22;20070;-80
2023/04/13 12:37:32;;;;;;;0.13;0.13;;;;;;;;;;6259774;22;20540;-80
2023/04/13 12:39:58;;;;;;;0.10;0.10;;;;;;;;;;6259671;22;20049;-82
2023/04/13 12:42:24;;;;;;;0.10;0.10;;;;;;;;;;6259915;22;20039;-82
2023/04/13 12:44:50;;;;;;;0.10;0.10;;;;;;;;;;6259071;22;20024;-81
2023/04/13 12:47:17;;;;;;;0.00;0.00;;;;;;;;;;6259483;22;20023;-81
2023/04/13 12:49:43;;;;;;;0.10;0.10;;;;;;;;;;6258333;22;20059;-81
2023/04/13 12:52:09;;;;;;;0.20;0.20;;;;;;;;;;6258766;22;20101;-82
2023/04/13 12:54:35;;;;;;;0.13;0.13;;;;;;;;;;6260107;22;20434;-82
2023/04/13 12:57:02;;;;;;;0.25;0.25;;;;;;;;;;6258385;22;20069;-82
2023/04/13 12:59:28;;;;;;;0.10;0.10;;;;;;;;;;6259443;22;20027;-82
2023/04/13 13:01:54;;;;;;;0.10;0.10;;;;;;;;;;6258506;22;20030;-81
2023/04/13 13:04:20;;;;;;;1.58;1.13;;;;;;;;;;6258033;22;20023;-82
2023/04/13 13:06:47;;;;;;;0.32;0.32;;;;;;;;;;6259850;22;20019;-81
2023/04/13 13:09:13;;;;;;;0.20;0.20;;;;;;;;;;6261132;22;20030;-80
2023/04/13 13:11:39;;;;;;;0.10;0.10;;;;;;;;;;6259122;22;20015;-79
2023/04/13 13:14:06;;;;;;;0.10;0.10;;;;;;;;;;6259087;22;20062;-78
2023/04/13 13:16:32;;;;;;;0.00;0.00;;;;;;;;;;6261164;22;20088;-84
2023/04/13 13:18:58;;;;;;;0.95;0.90;;;;;;;;;;6259898;22;20019;-83
2023/04/13 13:21:25;;;;;;;0.00;0.00;;;;;;;;;;6260473;22;20020;-83
2023/04/13 13:23:51;;;;;;;0.90;0.90;;;;;;;;;;6260925;22;20020;-84
2023/04/13 13:26:17;;;;;;;0.10;0.10;;;;;;;;;;6261290;22;20024;-86
2023/04/13 13:28:43;;;;;;;0.10;0.10;;;;;;;;;;6260801;22;20054;-83
2023/04/13 13:31:11;;;;;;;1.13;1.08;;;;;;;;;;6262998;22;20455;-81
2023/04/13 13:33:37;;;;;;;0.10;0.10;;;;;;;;;;6260083;22;20450;-83
2023/04/13 13:36:03;;;;;;;0.00;0.00;;;;;;;;;;6261399;22;20094;-83
2023/04/13 13:38:29;;;;;;;0.93;0.35;;;;;;;;;;6259593;22;20030;-89
2023/04/13 13:40:56;;;;;;;0.10;0.10;;;;;;;;;;6260959;22;20099;-81
2023/04/13 13:43:22;;;;;;;0.10;0.10;;;;;;;;;;6260876;22;20090;-83
2023/04/13 13:45:48;;;;;;;0.10;0.10;;;;;;;;;;6261712;22;20105;-83
2023/04/13 13:48:15;;;;;;;16.75;2.47;;;;;;;;;;6260710;22;20454;-82
2023/04/13 13:50:41;;;;;;;0.10;0.10;;;;;;;;;;6263484;22;20020;-83
2023/04/13 13:53:07;;;;;;;0.10;0.10;;;;;;;;;;6262566;22;20114;-88
2023/04/13 13:55:33;;;;;;;0.10;0.10;;;;;;;;;;6261009;22;20020;-81
2023/04/13 13:57:59;;;;;;;0.10;0.10;;;;;;;;;;6262268;22;20612;-83
2023/04/13 14:00:26;;;;;;;0.10;0.10;;;;;;;;;;6261565;22;20323;-82
2023/04/13 14:02:52;;;;;;;0.10;0.10;;;;;;;;;;6260679;22;20020;-84
2023/04/13 14:05:20;;;;;;;0.22;0.22;;;;;;;;;;6261084;22;20062;-83
2023/04/13 14:07:46;;;;;;;0.10;0.10;;;;;;;;;;6260838;22;20015;-83
2023/04/13 14:10:13;;;;;;;0.10;0.10;;;;;;;;;;6260970;22;20515;-88
2023/04/13 14:12:39;;;;;;;0.10;0.10;;;;;;;;;;6260900;22;20535;-82
2023/04/13 14:15:07;;;;;;;0.20;0.20;;;;;;;;;;6260287;22;20062;-83
2023/04/13 14:17:33;;;;;;;0.10;0.10;;;;;;;;;;6260333;22;20055;-83
2023/04/13 14:19:59;;;;;;;0.10;0.10;;;;;;;;;;6260564;22;20015;-83
2023/04/13 14:22:25;;;;;;;0.10;0.10;;;;;;;;;;6260259;22;20098;-85
2023/04/13 14:24:53;;;;;;;0.10;0.10;;;;;;;;;;6261040;22;20070;-83
2023/04/13 14:27:19;;;;;;;0.10;0.10;;;;;;;;;;6263157;22;20016;-83
2023/04/13 14:29:46;;;;;;;0.10;0.10;;;;;;;;;;6235573;22;20521;-84
2023/04/13 14:32:12;;;;;;;1.08;0.75;;;;;;;;;;6235599;22;20027;-86
2023/04/13 14:34:38;;;;;;;1.08;0.85;;;;;;;;;;6235848;22;20346;-86
2023/04/13 14:37:05;;;;;;;0.10;0.10;;;;;;;;;;6236360;22;20043;-88
2023/04/13 14:39:32;;;;;;;0.65;0.65;;;;;;;;;;6234384;22;20019;-84
2023/04/13 14:41:58;;;;;;;0.00;0.00;;;;;;;;;;6234953;22;20042;-83
2023/04/13 14:44:24;;;;;;;0.10;0.10;;;;;;;;;;6261683;22;20493;-81
2023/04/13 14:46:50;;;;;;;0.10;0.10;;;;;;;;;;6235842;22;20019;-81
2023/04/13 14:49:17;;;;;;;0.10;0.10;;;;;;;;;;6235482;22;20016;-77
2023/04/13 14:51:43;;;;;;;0.10;0.10;;;;;;;;;;6232928;22;20812;-77
2023/04/13 14:54:09;;;;;;;0.10;0.10;;;;;;;;;;6232159;22;20515;-80
2023/04/13 14:56:35;;;;;;;0.10;0.10;;;;;;;;;;6232165;22;20122;-79
2023/04/13 14:59:01;;;;;;;0.10;0.10;;;;;;;;;;6230868;22;20170;-79
2023/04/13 15:01:27;;;;;;;0.00;0.00;;;;;;;;;;6208023;22;20015;-80
2023/04/13 15:03:53;;;;;;;0.10;0.10;;;;;;;;;;6205911;22;20023;-80
2023/04/13 15:06:19;;;;;;;0.10;0.10;;;;;;;;;;6233706;22;20020;-79
2023/04/13 15:08:46;;;;;;;0.10;0.10;;;;;;;;;;6231986;22;20097;-79